sensor_id;sensor_type;location;lat;lon;timestamp;P1;durP1;ratioP1;P2;durP2;ratioP2
4704;SDS011;2366;51.332;6.610;2024-01-07T00:01:58;69.57;;;31.30;;
4704;SDS011;2366;51.332;6.610;2024-01-07T00:04:23;81.73;;;30.77;;
4704;SDS011;2366;51.332;6.610;2024-01-07T00:06:49;74.53;;;30.57;;
4704;SDS011;2366;51.332;6.610;2024-01-07T00:09:15;75.53;;;29.10;;
4704;SDS011;2366;51.332;6.610;2024-01-07T00:11:41;78.43;;;32.10;;
4704;SDS011;2366;51.332;6.610;2024-01-07T00:14:06;76.80;;;30.27;;
4704;SDS011;2366;51.332;6.610;2024-01-07T00:16:32;82.27;;;29.50;;
4704;SDS011;2366;51.332;6.610;2024-01-07T00:18:57;91.70;;;29.83;;
4704;SDS011;2366;51.332;6.610;2024-01-07T00:21:23;74.90;;;30.60;;
4704;SDS011;2366;51.332;6.610;2024-01-07T00:23:49;64.03;;;27.80;;
4704;SDS011;2366;51.332;6.610;2024-01-07T00:26:14;56.30;;;27.47;;
4704;SDS011;2366;51.332;6.610;2024-01-07T00:28:40;62.13;;;25.30;;
4704;SDS011;2366;51.332;6.610;2024-01-07T00:31:05;56.00;;;27.07;;
4704;SDS011;2366;51.332;6.610;2024-01-07T00:33:34;57.50;;;25.83;;
4704;SDS011;2366;51.332;6.610;2024-01-07T00:35:59;63.80;;;25.90;;
4704;SDS011;2366;51.332;6.610;2024-01-07T00:38:25;52.93;;;24.10;;
4704;SDS011;2366;51.332;6.610;2024-01-07T00:40:50;53.47;;;24.60;;
4704;SDS011;2366;51.332;6.610;2024-01-07T00:43:15;55.23;;;22.90;;
4704;SDS011;2366;51.332;6.610;2024-01-07T00:45:41;59.50;;;27.17;;
4704;SDS011;2366;51.332;6.610;2024-01-07T00:48:06;49.10;;;24.63;;
4704;SDS011;2366;51.332;6.610;2024-01-07T00:50:32;48.37;;;23.00;;
4704;SDS011;2366;51.332;6.610;2024-01-07T00:52:57;46.33;;;23.90;;
4704;SDS011;2366;51.332;6.610;2024-01-07T00:55:22;55.53;;;24.93;;
4704;SDS011;2366;51.332;6.610;2024-01-07T00:57:48;43.60;;;22.60;;
4704;SDS011;2366;51.332;6.610;2024-01-07T01:00:14;42.03;;;22.10;;
4704;SDS011;2366;51.332;6.610;2024-01-07T01:02:40;56.70;;;24.00;;
4704;SDS011;2366;51.332;6.610;2024-01-07T01:05:05;36.60;;;22.57;;
4704;SDS011;2366;51.332;6.610;2024-01-07T01:07:31;43.43;;;22.43;;
4704;SDS011;2366;51.332;6.610;2024-01-07T01:09:57;38.93;;;21.23;;
4704;SDS011;2366;51.332;6.610;2024-01-07T01:12:23;42.70;;;22.83;;
4704;SDS011;2366;51.332;6.610;2024-01-07T01:14:49;39.20;;;24.10;;
4704;SDS011;2366;51.332;6.610;2024-01-07T01:17:15;41.58;;;24.77;;
4704;SDS011;2366;51.332;6.610;2024-01-07T01:19:40;37.90;;;23.23;;
4704;SDS011;2366;51.332;6.610;2024-01-07T01:22:05;41.87;;;23.93;;
4704;SDS011;2366;51.332;6.610;2024-01-07T01:24:31;35.13;;;20.63;;
4704;SDS011;2366;51.332;6.610;2024-01-07T01:26:56;35.50;;;21.07;;
4704;SDS011;2366;51.332;6.610;2024-01-07T01:29:21;31.93;;;20.27;;
4704;SDS011;2366;51.332;6.610;2024-01-07T01:31:47;29.40;;;19.37;;
4704;SDS011;2366;51.332;6.610;2024-01-07T01:34:12;33.50;;;19.60;;
4704;SDS011;2366;51.332;6.610;2024-01-07T01:36:37;32.00;;;17.73;;
4704;SDS011;2366;51.332;6.610;2024-01-07T01:39:03;30.23;;;18.00;;
4704;SDS011;2366;51.332;6.610;2024-01-07T01:41:28;27.40;;;16.87;;
4704;SDS011;2366;51.332;6.610;2024-01-07T01:43:57;28.47;;;16.57;;
4704;SDS011;2366;51.332;6.610;2024-01-07T01:46:23;22.70;;;15.43;;
4704;SDS011;2366;51.332;6.610;2024-01-07T01:48:49;26.27;;;18.20;;
4704;SDS011;2366;51.332;6.610;2024-01-07T01:51:15;26.65;;;17.98;;
4704;SDS011;2366;51.332;6.610;2024-01-07T01:53:41;25.50;;;15.50;;
4704;SDS011;2366;51.332;6.610;2024-01-07T01:56:06;18.83;;;15.47;;
4704;SDS011;2366;51.332;6.610;2024-01-07T01:58:32;22.83;;;13.90;;
4704;SDS011;2366;51.332;6.610;2024-01-07T02:00:58;26.40;;;15.77;;
4704;SDS011;2366;51.332;6.610;2024-01-07T02:03:24;20.30;;;13.93;;
4704;SDS011;2366;51.332;6.610;2024-01-07T02:05:50;25.30;;;16.13;;
4704;SDS011;2366;51.332;6.610;2024-01-07T02:08:17;27.00;;;15.13;;
4704;SDS011;2366;51.332;6.610;2024-01-07T02:10:44;24.55;;;16.25;;
4704;SDS011;2366;51.332;6.610;2024-01-07T02:13:10;22.40;;;15.53;;
4704;SDS011;2366;51.332;6.610;2024-01-07T02:15:36;26.40;;;16.00;;
4704;SDS011;2366;51.332;6.610;2024-01-07T02:18:01;22.13;;;15.93;;
4704;SDS011;2366;51.332;6.610;2024-01-07T02:20:27;29.70;;;18.70;;
4704;SDS011;2366;51.332;6.610;2024-01-07T02:22:52;25.43;;;16.73;;
4704;SDS011;2366;51.332;6.610;2024-01-07T02:25:18;26.77;;;17.55;;
4704;SDS011;2366;51.332;6.610;2024-01-07T02:27:44;30.07;;;18.77;;
4704;SDS011;2366;51.332;6.610;2024-01-07T02:30:09;32.80;;;18.13;;
4704;SDS011;2366;51.332;6.610;2024-01-07T02:32:35;26.50;;;17.47;;
4704;SDS011;2366;51.332;6.610;2024-01-07T02:35:02;30.80;;;19.30;;
4704;SDS011;2366;51.332;6.610;2024-01-07T02:37:28;23.73;;;16.33;;
4704;SDS011;2366;51.332;6.610;2024-01-07T02:39:54;31.43;;;18.40;;
4704;SDS011;2366;51.332;6.610;2024-01-07T02:42:19;27.53;;;19.23;;
4704;SDS011;2366;51.332;6.610;2024-01-07T02:44:44;31.50;;;20.67;;
4704;SDS011;2366;51.332;6.610;2024-01-07T02:47:10;31.60;;;20.33;;
4704;SDS011;2366;51.332;6.610;2024-01-07T02:49:35;34.03;;;19.20;;
4704;SDS011;2366;51.332;6.610;2024-01-07T02:52:00;32.10;;;18.00;;
4704;SDS011;2366;51.332;6.610;2024-01-07T02:54:26;27.87;;;19.30;;
4704;SDS011;2366;51.332;6.610;2024-01-07T02:56:51;35.10;;;21.43;;
4704;SDS011;2366;51.332;6.610;2024-01-07T02:59:17;34.13;;;20.87;;
4704;SDS011;2366;51.332;6.610;2024-01-07T03:01:42;44.00;;;23.80;;
4704;SDS011;2366;51.332;6.610;2024-01-07T03:04:09;45.80;;;23.83;;
4704;SDS011;2366;51.332;6.610;2024-01-07T03:06:35;42.20;;;24.15;;
4704;SDS011;2366;51.332;6.610;2024-01-07T03:09:00;47.50;;;25.97;;
4704;SDS011;2366;51.332;6.610;2024-01-07T03:11:26;43.63;;;26.17;;
4704;SDS011;2366;51.332;6.610;2024-01-07T03:13:51;46.17;;;25.87;;
4704;SDS011;2366;51.332;6.610;2024-01-07T03:16:23;47.37;;;26.40;;
4704;SDS011;2366;51.332;6.610;2024-01-07T03:18:49;48.78;;;26.80;;
4704;SDS011;2366;51.332;6.610;2024-01-07T03:21:18;48.87;;;27.40;;
4704;SDS011;2366;51.332;6.610;2024-01-07T03:23:45;50.20;;;27.52;;
4704;SDS011;2366;51.332;6.610;2024-01-07T03:26:11;44.58;;;27.50;;
4704;SDS011;2366;51.332;6.610;2024-01-07T03:28:36;44.50;;;26.43;;
4704;SDS011;2366;51.332;6.610;2024-01-07T03:31:05;46.57;;;26.23;;
4704;SDS011;2366;51.332;6.610;2024-01-07T03:33:33;48.72;;;27.23;;
4704;SDS011;2366;51.332;6.610;2024-01-07T03:35:59;48.73;;;29.43;;
4704;SDS011;2366;51.332;6.610;2024-01-07T03:38:24;40.87;;;25.23;;
4704;SDS011;2366;51.332;6.610;2024-01-07T03:40:49;46.23;;;27.20;;
4704;SDS011;2366;51.332;6.610;2024-01-07T03:43:15;44.60;;;28.07;;
4704;SDS011;2366;51.332;6.610;2024-01-07T03:45:40;45.30;;;25.93;;
4704;SDS011;2366;51.332;6.610;2024-01-07T03:48:06;49.83;;;28.73;;
4704;SDS011;2366;51.332;6.610;2024-01-07T03:50:32;45.17;;;27.88;;
4704;SDS011;2366;51.332;6.610;2024-01-07T03:52:58;44.47;;;24.93;;
4704;SDS011;2366;51.332;6.610;2024-01-07T03:55:23;38.70;;;25.83;;
4704;SDS011;2366;51.332;6.610;2024-01-07T03:57:48;34.70;;;23.70;;
4704;SDS011;2366;51.332;6.610;2024-01-07T04:00:14;43.93;;;25.30;;
4704;SDS011;2366;51.332;6.610;2024-01-07T04:02:39;34.53;;;21.63;;
4704;SDS011;2366;51.332;6.610;2024-01-07T04:05:05;35.43;;;22.27;;
4704;SDS011;2366;51.332;6.610;2024-01-07T04:07:30;36.90;;;23.40;;
4704;SDS011;2366;51.332;6.610;2024-01-07T04:09:56;34.57;;;22.50;;
4704;SDS011;2366;51.332;6.610;2024-01-07T04:12:21;28.17;;;20.33;;
4704;SDS011;2366;51.332;6.610;2024-01-07T04:14:47;28.90;;;20.00;;
4704;SDS011;2366;51.332;6.610;2024-01-07T04:17:12;24.70;;;17.30;;
4704;SDS011;2366;51.332;6.610;2024-01-07T04:19:37;25.33;;;18.40;;
4704;SDS011;2366;51.332;6.610;2024-01-07T04:22:03;27.73;;;18.30;;
4704;SDS011;2366;51.332;6.610;2024-01-07T04:24:29;27.00;;;16.80;;
4704;SDS011;2366;51.332;6.610;2024-01-07T04:26:54;22.37;;;16.73;;
4704;SDS011;2366;51.332;6.610;2024-01-07T04:29:19;32.67;;;19.07;;
4704;SDS011;2366;51.332;6.610;2024-01-07T04:31:45;23.63;;;17.23;;
4704;SDS011;2366;51.332;6.610;2024-01-07T04:34:10;24.13;;;17.73;;
4704;SDS011;2366;51.332;6.610;2024-01-07T04:36:35;31.53;;;19.57;;
4704;SDS011;2366;51.332;6.610;2024-01-07T04:39:01;31.03;;;18.77;;
4704;SDS011;2366;51.332;6.610;2024-01-07T04:41:26;32.33;;;19.50;;
4704;SDS011;2366;51.332;6.610;2024-01-07T04:43:52;30.43;;;17.70;;
4704;SDS011;2366;51.332;6.610;2024-01-07T04:46:17;36.70;;;20.07;;
4704;SDS011;2366;51.332;6.610;2024-01-07T04:48:43;32.50;;;20.70;;
4704;SDS011;2366;51.332;6.610;2024-01-07T04:51:08;27.77;;;19.53;;
4704;SDS011;2366;51.332;6.610;2024-01-07T04:53:33;31.10;;;20.73;;
4704;SDS011;2366;51.332;6.610;2024-01-07T04:55:59;23.70;;;18.60;;
4704;SDS011;2366;51.332;6.610;2024-01-07T04:58:24;23.43;;;17.00;;
4704;SDS011;2366;51.332;6.610;2024-01-07T05:00:50;28.20;;;17.60;;
4704;SDS011;2366;51.332;6.610;2024-01-07T05:03:15;22.20;;;16.30;;
4704;SDS011;2366;51.332;6.610;2024-01-07T05:05:40;23.10;;;17.40;;
4704;SDS011;2366;51.332;6.610;2024-01-07T05:08:06;24.37;;;17.43;;
4704;SDS011;2366;51.332;6.610;2024-01-07T05:10:32;24.47;;;17.67;;
4704;SDS011;2366;51.332;6.610;2024-01-07T05:12:57;22.33;;;16.80;;
4704;SDS011;2366;51.332;6.610;2024-01-07T05:15:23;24.60;;;16.30;;
4704;SDS011;2366;51.332;6.610;2024-01-07T05:17:48;23.03;;;16.47;;
4704;SDS011;2366;51.332;6.610;2024-01-07T05:20:17;24.90;;;17.43;;
4704;SDS011;2366;51.332;6.610;2024-01-07T05:22:42;24.63;;;17.30;;
4704;SDS011;2366;51.332;6.610;2024-01-07T05:25:07;19.97;;;15.60;;
4704;SDS011;2366;51.332;6.610;2024-01-07T05:27:34;20.95;;;15.98;;
4704;SDS011;2366;51.332;6.610;2024-01-07T05:29:59;23.80;;;18.03;;
4704;SDS011;2366;51.332;6.610;2024-01-07T05:32:24;20.50;;;16.67;;
4704;SDS011;2366;51.332;6.610;2024-01-07T05:34:50;24.87;;;16.07;;
4704;SDS011;2366;51.332;6.610;2024-01-07T05:37:15;23.53;;;16.80;;
4704;SDS011;2366;51.332;6.610;2024-01-07T05:39:41;26.13;;;16.93;;
4704;SDS011;2366;51.332;6.610;2024-01-07T05:42:06;23.20;;;18.10;;
4704;SDS011;2366;51.332;6.610;2024-01-07T05:44:31;26.30;;;16.90;;
4704;SDS011;2366;51.332;6.610;2024-01-07T05:46:57;22.43;;;15.97;;
4704;SDS011;2366;51.332;6.610;2024-01-07T05:49:22;22.47;;;16.63;;
4704;SDS011;2366;51.332;6.610;2024-01-07T05:51:47;22.97;;;16.47;;
4704;SDS011;2366;51.332;6.610;2024-01-07T05:54:13;21.50;;;14.60;;
4704;SDS011;2366;51.332;6.610;2024-01-07T05:56:41;22.63;;;15.83;;
4704;SDS011;2366;51.332;6.610;2024-01-07T05:59:07;22.70;;;15.90;;
4704;SDS011;2366;51.332;6.610;2024-01-07T06:01:32;20.70;;;15.30;;
4704;SDS011;2366;51.332;6.610;2024-01-07T06:03:58;24.30;;;15.83;;
4704;SDS011;2366;51.332;6.610;2024-01-07T06:06:23;23.07;;;15.80;;
4704;SDS011;2366;51.332;6.610;2024-01-07T06:08:48;22.47;;;16.60;;
4704;SDS011;2366;51.332;6.610;2024-01-07T06:11:14;28.03;;;17.97;;
4704;SDS011;2366;51.332;6.610;2024-01-07T06:13:43;33.58;;;19.33;;
4704;SDS011;2366;51.332;6.610;2024-01-07T06:16:09;34.70;;;21.50;;
4704;SDS011;2366;51.332;6.610;2024-01-07T06:18:35;40.73;;;22.43;;
4704;SDS011;2366;51.332;6.610;2024-01-07T06:21:00;48.07;;;26.20;;
4704;SDS011;2366;51.332;6.610;2024-01-07T06:23:25;40.93;;;25.40;;
4704;SDS011;2366;51.332;6.610;2024-01-07T06:25:51;49.83;;;24.33;;
4704;SDS011;2366;51.332;6.610;2024-01-07T06:28:16;46.50;;;25.83;;
4704;SDS011;2366;51.332;6.610;2024-01-07T06:30:41;41.47;;;26.07;;
4704;SDS011;2366;51.332;6.610;2024-01-07T06:33:07;42.13;;;26.43;;
4704;SDS011;2366;51.332;6.610;2024-01-07T06:35:32;44.40;;;27.90;;
4704;SDS011;2366;51.332;6.610;2024-01-07T06:37:57;44.40;;;25.50;;
4704;SDS011;2366;51.332;6.610;2024-01-07T06:40:23;55.67;;;25.77;;
4704;SDS011;2366;51.332;6.610;2024-01-07T06:42:48;45.80;;;26.07;;
4704;SDS011;2366;51.332;6.610;2024-01-07T06:45:14;37.80;;;23.00;;
4704;SDS011;2366;51.332;6.610;2024-01-07T06:47:42;43.42;;;25.42;;
4704;SDS011;2366;51.332;6.610;2024-01-07T06:50:08;42.37;;;24.97;;
4704;SDS011;2366;51.332;6.610;2024-01-07T06:52:35;40.30;;;25.13;;
4704;SDS011;2366;51.332;6.610;2024-01-07T06:55:00;38.93;;;23.00;;
4704;SDS011;2366;51.332;6.610;2024-01-07T06:57:26;44.67;;;24.33;;
4704;SDS011;2366;51.332;6.610;2024-01-07T06:59:51;57.50;;;27.57;;
4704;SDS011;2366;51.332;6.610;2024-01-07T07:02:17;50.03;;;27.37;;
4704;SDS011;2366;51.332;6.610;2024-01-07T07:04:42;57.17;;;27.70;;
4704;SDS011;2366;51.332;6.610;2024-01-07T07:07:07;56.00;;;32.47;;
4704;SDS011;2366;51.332;6.610;2024-01-07T07:09:33;62.53;;;31.77;;
4704;SDS011;2366;51.332;6.610;2024-01-07T07:11:59;67.63;;;32.35;;
4704;SDS011;2366;51.332;6.610;2024-01-07T07:14:25;65.07;;;31.87;;
4704;SDS011;2366;51.332;6.610;2024-01-07T07:16:50;64.33;;;33.77;;
4704;SDS011;2366;51.332;6.610;2024-01-07T07:19:15;54.90;;;29.90;;
4704;SDS011;2366;51.332;6.610;2024-01-07T07:21:42;64.80;;;32.35;;
4704;SDS011;2366;51.332;6.610;2024-01-07T07:24:09;61.50;;;30.33;;
4704;SDS011;2366;51.332;6.610;2024-01-07T07:26:34;56.97;;;29.70;;
4704;SDS011;2366;51.332;6.610;2024-01-07T07:29:01;53.70;;;29.92;;
4704;SDS011;2366;51.332;6.610;2024-01-07T07:31:26;62.77;;;30.20;;
4704;SDS011;2366;51.332;6.610;2024-01-07T07:33:52;51.10;;;29.80;;
4704;SDS011;2366;51.332;6.610;2024-01-07T07:36:17;63.27;;;30.50;;
4704;SDS011;2366;51.332;6.610;2024-01-07T07:38:43;55.50;;;27.90;;
4704;SDS011;2366;51.332;6.610;2024-01-07T07:41:08;54.67;;;29.10;;
4704;SDS011;2366;51.332;6.610;2024-01-07T07:43:33;53.93;;;29.00;;
4704;SDS011;2366;51.332;6.610;2024-01-07T07:45:59;57.80;;;29.53;;
4704;SDS011;2366;51.332;6.610;2024-01-07T07:48:26;49.80;;;27.25;;
4704;SDS011;2366;51.332;6.610;2024-01-07T07:50:53;67.50;;;29.33;;
4704;SDS011;2366;51.332;6.610;2024-01-07T07:53:18;46.87;;;25.73;;
4704;SDS011;2366;51.332;6.610;2024-01-07T07:55:43;43.83;;;25.20;;
4704;SDS011;2366;51.332;6.610;2024-01-07T07:58:09;47.73;;;27.43;;
4704;SDS011;2366;51.332;6.610;2024-01-07T08:00:34;46.27;;;27.43;;
4704;SDS011;2366;51.332;6.610;2024-01-07T08:03:00;46.13;;;26.43;;
4704;SDS011;2366;51.332;6.610;2024-01-07T08:05:25;50.07;;;26.97;;
4704;SDS011;2366;51.332;6.610;2024-01-07T08:07:50;46.27;;;26.13;;
4704;SDS011;2366;51.332;6.610;2024-01-07T08:10:16;46.13;;;26.03;;
4704;SDS011;2366;51.332;6.610;2024-01-07T08:12:41;48.83;;;27.80;;
4704;SDS011;2366;51.332;6.610;2024-01-07T08:15:07;49.87;;;27.30;;
4704;SDS011;2366;51.332;6.610;2024-01-07T08:17:32;46.75;;;24.65;;
4704;SDS011;2366;51.332;6.610;2024-01-07T08:19:58;48.73;;;27.07;;
4704;SDS011;2366;51.332;6.610;2024-01-07T08:22:23;47.50;;;26.07;;
4704;SDS011;2366;51.332;6.610;2024-01-07T08:24:49;53.53;;;27.40;;
4704;SDS011;2366;51.332;6.610;2024-01-07T08:27:15;50.00;;;25.83;;
4704;SDS011;2366;51.332;6.610;2024-01-07T08:29:42;47.90;;;25.60;;
4704;SDS011;2366;51.332;6.610;2024-01-07T08:32:09;40.08;;;24.83;;
4704;SDS011;2366;51.332;6.610;2024-01-07T08:34:34;42.43;;;23.17;;
4704;SDS011;2366;51.332;6.610;2024-01-07T08:37:00;41.47;;;22.90;;
4704;SDS011;2366;51.332;6.610;2024-01-07T08:39:25;39.37;;;22.90;;
4704;SDS011;2366;51.332;6.610;2024-01-07T08:41:51;37.77;;;23.00;;
4704;SDS011;2366;51.332;6.610;2024-01-07T08:44:16;49.43;;;24.70;;
4704;SDS011;2366;51.332;6.610;2024-01-07T08:46:42;39.40;;;23.23;;
4704;SDS011;2366;51.332;6.610;2024-01-07T08:49:07;35.37;;;22.90;;
4704;SDS011;2366;51.332;6.610;2024-01-07T08:51:32;44.43;;;24.80;;
4704;SDS011;2366;51.332;6.610;2024-01-07T08:53:58;36.13;;;22.57;;
4704;SDS011;2366;51.332;6.610;2024-01-07T08:56:24;35.17;;;20.10;;
4704;SDS011;2366;51.332;6.610;2024-01-07T08:58:50;35.53;;;19.88;;
4704;SDS011;2366;51.332;6.610;2024-01-07T09:01:17;30.08;;;17.92;;
4704;SDS011;2366;51.332;6.610;2024-01-07T09:03:42;27.87;;;19.00;;
4704;SDS011;2366;51.332;6.610;2024-01-07T09:06:08;27.90;;;18.40;;
4704;SDS011;2366;51.332;6.610;2024-01-07T09:08:33;30.93;;;19.63;;
4704;SDS011;2366;51.332;6.610;2024-01-07T09:11:00;40.55;;;21.50;;
4704;SDS011;2366;51.332;6.610;2024-01-07T09:13:26;36.33;;;21.58;;
4704;SDS011;2366;51.332;6.610;2024-01-07T09:15:52;31.03;;;20.90;;
4704;SDS011;2366;51.332;6.610;2024-01-07T09:18:17;35.90;;;22.47;;
4704;SDS011;2366;51.332;6.610;2024-01-07T09:20:43;37.97;;;21.37;;
4704;SDS011;2366;51.332;6.610;2024-01-07T09:23:09;30.50;;;19.90;;
4704;SDS011;2366;51.332;6.610;2024-01-07T09:25:34;37.20;;;21.70;;
4704;SDS011;2366;51.332;6.610;2024-01-07T09:28:00;32.93;;;20.70;;
4704;SDS011;2366;51.332;6.610;2024-01-07T09:30:25;32.77;;;20.13;;
4704;SDS011;2366;51.332;6.610;2024-01-07T09:32:51;42.43;;;23.00;;
4704;SDS011;2366;51.332;6.610;2024-01-07T09:35:16;30.60;;;19.47;;
4704;SDS011;2366;51.332;6.610;2024-01-07T09:37:42;34.10;;;20.00;;
4704;SDS011;2366;51.332;6.610;2024-01-07T09:40:07;42.03;;;21.80;;
4704;SDS011;2366;51.332;6.610;2024-01-07T09:42:33;35.10;;;22.17;;
4704;SDS011;2366;51.332;6.610;2024-01-07T09:45:00;31.73;;;20.13;;
4704;SDS011;2366;51.332;6.610;2024-01-07T09:47:28;28.90;;;19.52;;
4704;SDS011;2366;51.332;6.610;2024-01-07T09:49:54;40.00;;;21.03;;
4704;SDS011;2366;51.332;6.610;2024-01-07T09:52:20;32.83;;;21.00;;
4704;SDS011;2366;51.332;6.610;2024-01-07T09:54:46;33.33;;;20.73;;
4704;SDS011;2366;51.332;6.610;2024-01-07T09:57:16;27.65;;;19.98;;
4704;SDS011;2366;51.332;6.610;2024-01-07T09:59:42;29.20;;;19.23;;
4704;SDS011;2366;51.332;6.610;2024-01-07T10:02:08;25.50;;;17.73;;
4704;SDS011;2366;51.332;6.610;2024-01-07T10:04:34;25.52;;;18.45;;
4704;SDS011;2366;51.332;6.610;2024-01-07T10:07:01;27.48;;;17.60;;
4704;SDS011;2366;51.332;6.610;2024-01-07T10:09:30;29.50;;;20.23;;
4704;SDS011;2366;51.332;6.610;2024-01-07T10:11:58;28.35;;;19.50;;
4704;SDS011;2366;51.332;6.610;2024-01-07T10:14:23;28.17;;;19.00;;
4704;SDS011;2366;51.332;6.610;2024-01-07T10:16:52;23.30;;;17.13;;
4704;SDS011;2366;51.332;6.610;2024-01-07T10:19:21;25.07;;;16.87;;
4704;SDS011;2366;51.332;6.610;2024-01-07T10:21:58;25.17;;;17.20;;
4704;SDS011;2366;51.332;6.610;2024-01-07T10:24:24;25.40;;;19.13;;
4704;SDS011;2366;51.332;6.610;2024-01-07T10:26:50;28.10;;;19.27;;
4704;SDS011;2366;51.332;6.610;2024-01-07T10:29:15;26.93;;;19.73;;
4704;SDS011;2366;51.332;6.610;2024-01-07T10:31:41;26.83;;;18.70;;
4704;SDS011;2366;51.332;6.610;2024-01-07T10:34:08;32.85;;;19.98;;
4704;SDS011;2366;51.332;6.610;2024-01-07T10:36:34;28.92;;;19.90;;
4704;SDS011;2366;51.332;6.610;2024-01-07T10:39:00;29.35;;;20.60;;
4704;SDS011;2366;51.332;6.610;2024-01-07T10:41:26;30.27;;;19.30;;
4704;SDS011;2366;51.332;6.610;2024-01-07T10:43:52;34.42;;;21.58;;
4704;SDS011;2366;51.332;6.610;2024-01-07T10:46:19;27.58;;;18.45;;
4704;SDS011;2366;51.332;6.610;2024-01-07T10:48:59;25.45;;;17.67;;
4704;SDS011;2366;51.332;6.610;2024-01-07T10:51:29;27.45;;;19.17;;
4704;SDS011;2366;51.332;6.610;2024-01-07T10:53:59;21.88;;;15.70;;
4704;SDS011;2366;51.332;6.610;2024-01-07T10:59:10;22.23;;;16.98;;
4704;SDS011;2366;51.332;6.610;2024-01-07T11:01:36;24.17;;;15.03;;
4704;SDS011;2366;51.332;6.610;2024-01-07T11:04:10;24.08;;;16.02;;
4704;SDS011;2366;51.332;6.610;2024-01-07T11:06:46;28.38;;;17.05;;
4704;SDS011;2366;51.332;6.610;2024-01-07T11:09:19;28.52;;;15.13;;
4704;SDS011;2366;51.332;6.610;2024-01-07T11:11:51;24.50;;;17.75;;
4704;SDS011;2366;51.332;6.610;2024-01-07T11:17:02;28.90;;;14.65;;
4704;SDS011;2366;51.332;6.610;2024-01-07T11:19:28;22.77;;;14.50;;
4704;SDS011;2366;51.332;6.610;2024-01-07T11:22:20;27.20;;;16.70;;
4704;SDS011;2366;51.332;6.610;2024-01-07T11:24:58;21.63;;;16.25;;
4704;SDS011;2366;51.332;6.610;2024-01-07T11:27:25;21.75;;;15.15;;
4704;SDS011;2366;51.332;6.610;2024-01-07T11:29:54;20.15;;;15.13;;
4704;SDS011;2366;51.332;6.610;2024-01-07T11:32:21;23.10;;;15.05;;
4704;SDS011;2366;51.332;6.610;2024-01-07T11:34:54;16.30;;;12.32;;
4704;SDS011;2366;51.332;6.610;2024-01-07T11:37:21;21.95;;;14.48;;
4704;SDS011;2366;51.332;6.610;2024-01-07T11:39:47;18.13;;;13.67;;
4704;SDS011;2366;51.332;6.610;2024-01-07T11:42:16;18.08;;;12.63;;
4704;SDS011;2366;51.332;6.610;2024-01-07T11:44:46;14.47;;;11.30;;
4704;SDS011;2366;51.332;6.610;2024-01-07T11:47:13;16.55;;;10.90;;
4704;SDS011;2366;51.332;6.610;2024-01-07T11:49:39;16.20;;;10.90;;
4704;SDS011;2366;51.332;6.610;2024-01-07T11:52:04;20.20;;;10.73;;
4704;SDS011;2366;51.332;6.610;2024-01-07T11:54:30;11.67;;;9.10;;
4704;SDS011;2366;51.332;6.610;2024-01-07T11:56:56;13.40;;;9.70;;
4704;SDS011;2366;51.332;6.610;2024-01-07T11:59:22;14.60;;;10.57;;
4704;SDS011;2366;51.332;6.610;2024-01-07T12:01:48;12.60;;;9.45;;
4704;SDS011;2366;51.332;6.610;2024-01-07T12:04:13;12.10;;;8.67;;
4704;SDS011;2366;51.332;6.610;2024-01-07T12:06:39;13.23;;;7.77;;
4704;SDS011;2366;51.332;6.610;2024-01-07T12:09:05;7.75;;;6.95;;
4704;SDS011;2366;51.332;6.610;2024-01-07T12:11:31;10.80;;;7.50;;
4704;SDS011;2366;51.332;6.610;2024-01-07T12:13:57;7.10;;;6.40;;
4704;SDS011;2366;51.332;6.610;2024-01-07T12:16:23;8.73;;;6.22;;
4704;SDS011;2366;51.332;6.610;2024-01-07T12:18:49;10.23;;;8.10;;
4704;SDS011;2366;51.332;6.610;2024-01-07T12:21:20;9.13;;;7.03;;
4704;SDS011;2366;51.332;6.610;2024-01-07T12:23:50;7.25;;;6.30;;
4704;SDS011;2366;51.332;6.610;2024-01-07T12:26:16;16.40;;;5.93;;
4704;SDS011;2366;51.332;6.610;2024-01-07T12:28:42;8.30;;;6.80;;
4704;SDS011;2366;51.332;6.610;2024-01-07T12:31:07;8.60;;;7.32;;
4704;SDS011;2366;51.332;6.610;2024-01-07T12:33:36;10.30;;;7.30;;
4704;SDS011;2366;51.332;6.610;2024-01-07T12:36:02;11.52;;;6.50;;
4704;SDS011;2366;51.332;6.610;2024-01-07T12:38:28;6.60;;;6.00;;
4704;SDS011;2366;51.332;6.610;2024-01-07T12:40:54;7.50;;;6.13;;
4704;SDS011;2366;51.332;6.610;2024-01-07T12:43:21;6.78;;;6.18;;
4704;SDS011;2366;51.332;6.610;2024-01-07T12:45:47;7.63;;;6.00;;
4704;SDS011;2366;51.332;6.610;2024-01-07T12:48:15;7.68;;;5.30;;
4704;SDS011;2366;51.332;6.610;2024-01-07T12:50:40;8.90;;;5.70;;
4704;SDS011;2366;51.332;6.610;2024-01-07T12:53:06;7.30;;;5.20;;
4704;SDS011;2366;51.332;6.610;2024-01-07T12:55:31;7.50;;;5.50;;
4704;SDS011;2366;51.332;6.610;2024-01-07T12:57:57;4.57;;;4.15;;
4704;SDS011;2366;51.332;6.610;2024-01-07T13:00:25;6.95;;;5.35;;
4704;SDS011;2366;51.332;6.610;2024-01-07T13:02:53;6.97;;;5.40;;
4704;SDS011;2366;51.332;6.610;2024-01-07T13:05:19;5.90;;;5.40;;
4704;SDS011;2366;51.332;6.610;2024-01-07T13:07:46;9.30;;;5.53;;
4704;SDS011;2366;51.332;6.610;2024-01-07T13:10:12;7.00;;;6.00;;
4704;SDS011;2366;51.332;6.610;2024-01-07T13:12:38;4.57;;;4.17;;
4704;SDS011;2366;51.332;6.610;2024-01-07T13:15:04;5.00;;;4.40;;
4704;SDS011;2366;51.332;6.610;2024-01-07T13:17:30;5.60;;;4.70;;
4704;SDS011;2366;51.332;6.610;2024-01-07T13:19:57;6.80;;;5.43;;
4704;SDS011;2366;51.332;6.610;2024-01-07T13:22:23;5.07;;;4.57;;
4704;SDS011;2366;51.332;6.610;2024-01-07T13:24:49;5.63;;;5.10;;
4704;SDS011;2366;51.332;6.610;2024-01-07T13:27:15;6.10;;;4.43;;
4704;SDS011;2366;51.332;6.610;2024-01-07T13:29:43;5.10;;;4.28;;
4704;SDS011;2366;51.332;6.610;2024-01-07T13:32:10;6.50;;;4.30;;
4704;SDS011;2366;51.332;6.610;2024-01-07T13:34:36;3.87;;;3.53;;
4704;SDS011;2366;51.332;6.610;2024-01-07T13:37:01;5.20;;;4.47;;
4704;SDS011;2366;51.332;6.610;2024-01-07T13:39:28;6.07;;;3.70;;
4704;SDS011;2366;51.332;6.610;2024-01-07T13:41:55;5.53;;;5.03;;
4704;SDS011;2366;51.332;6.610;2024-01-07T13:44:21;5.03;;;4.17;;
4704;SDS011;2366;51.332;6.610;2024-01-07T13:46:46;4.73;;;4.30;;
4704;SDS011;2366;51.332;6.610;2024-01-07T13:49:12;8.40;;;5.20;;
4704;SDS011;2366;51.332;6.610;2024-01-07T13:51:39;6.80;;;4.75;;
4704;SDS011;2366;51.332;6.610;2024-01-07T13:54:05;5.63;;;4.38;;
4704;SDS011;2366;51.332;6.610;2024-01-07T13:56:31;5.30;;;4.27;;
4704;SDS011;2366;51.332;6.610;2024-01-07T13:58:56;6.10;;;4.43;;
4704;SDS011;2366;51.332;6.610;2024-01-07T14:01:22;4.23;;;3.40;;
4704;SDS011;2366;51.332;6.610;2024-01-07T14:03:48;4.07;;;3.67;;
4704;SDS011;2366;51.332;6.610;2024-01-07T14:06:13;5.90;;;3.27;;
4704;SDS011;2366;51.332;6.610;2024-01-07T14:08:39;5.67;;;3.87;;
4704;SDS011;2366;51.332;6.610;2024-01-07T14:11:04;3.97;;;3.57;;
4704;SDS011;2366;51.332;6.610;2024-01-07T14:13:32;4.50;;;4.05;;
4704;SDS011;2366;51.332;6.610;2024-01-07T14:15:57;4.27;;;3.87;;
4704;SDS011;2366;51.332;6.610;2024-01-07T14:18:23;9.13;;;4.73;;
4704;SDS011;2366;51.332;6.610;2024-01-07T14:20:49;4.67;;;4.20;;
4704;SDS011;2366;51.332;6.610;2024-01-07T14:23:14;5.57;;;4.20;;
4704;SDS011;2366;51.332;6.610;2024-01-07T14:25:39;6.33;;;4.10;;
4704;SDS011;2366;51.332;6.610;2024-01-07T14:28:08;4.55;;;4.15;;
4704;SDS011;2366;51.332;6.610;2024-01-07T14:30:33;4.73;;;4.10;;
4704;SDS011;2366;51.332;6.610;2024-01-07T14:32:59;6.80;;;4.63;;
4704;SDS011;2366;51.332;6.610;2024-01-07T14:35:24;4.50;;;4.10;;
4704;SDS011;2366;51.332;6.610;2024-01-07T14:37:51;4.90;;;3.63;;
4704;SDS011;2366;51.332;6.610;2024-01-07T14:40:18;3.95;;;3.53;;
4704;SDS011;2366;51.332;6.610;2024-01-07T14:42:43;5.90;;;3.60;;
4704;SDS011;2366;51.332;6.610;2024-01-07T14:45:09;3.53;;;3.23;;
4704;SDS011;2366;51.332;6.610;2024-01-07T14:47:34;6.47;;;4.47;;
4704;SDS011;2366;51.332;6.610;2024-01-07T14:50:00;3.90;;;3.60;;
4704;SDS011;2366;51.332;6.610;2024-01-07T14:52:27;6.85;;;3.50;;